createdAt,value
2022-10-20T02:31:59.592Z,5.21
2022-10-20T02:33:00.936Z,5.25
2022-10-20T02:34:01.267Z,5.23
2022-10-20T02:35:05.044Z,5.25
2022-10-20T02:36:02.011Z,5.26
2022-10-20T02:38:03.540Z,5.25
2022-10-20T02:39:03.056Z,5.25
2022-10-20T02:40:03.385Z,5.23
2022-10-20T02:41:03.745Z,5.21
2022-10-20T02:42:04.129Z,5.23
2022-10-20T02:43:04.442Z,5.23
2022-10-20T02:44:04.823Z,5.23
2022-10-20T02:45:05.186Z,5.25
2022-10-20T02:46:05.616Z,5.21
2022-10-20T02:47:05.920Z,5.20
2022-10-20T02:48:07.846Z,5.18
2022-10-20T02:49:06.624Z,5.17
2022-10-20T02:50:06.994Z,5.14
2022-10-20T02:51:07.361Z,5.14
2022-10-20T02:52:07.711Z,5.12
2022-10-20T02:53:08.051Z,5.14
2022-10-20T02:54:08.383Z,5.11
2022-10-20T02:55:08.775Z,5.14
2022-10-20T02:56:09.078Z,5.11
2022-10-20T02:57:09.413Z,5.11
2022-10-20T02:58:09.771Z,5.07
2022-10-20T02:59:10.145Z,5.07
2022-10-20T03:00:10.500Z,5.05
2022-10-20T03:01:10.877Z,5.05
2022-10-20T03:02:11.217Z,5.00
2022-10-20T03:03:11.555Z,5.00
2022-10-20T03:04:12.002Z,5.00
2022-10-20T03:05:12.271Z,5.02
2022-10-20T03:06:12.647Z,4.99
2022-10-20T03:07:12.991Z,4.99
2022-10-20T03:08:13.313Z,4.99
2022-10-20T03:09:13.657Z,4.97
2022-10-20T03:10:14.040Z,4.96
2022-10-20T03:11:14.373Z,4.96
2022-10-20T03:12:14.716Z,4.96
2022-10-20T03:13:15.039Z,4.96
2022-10-20T03:14:15.400Z,4.97
2022-10-20T03:15:15.779Z,4.99
2022-10-20T03:16:16.136Z,4.99
2022-10-20T03:17:16.514Z,4.99
2022-10-20T03:18:16.841Z,4.96
2022-10-20T03:19:17.207Z,4.96
2022-10-20T03:20:17.580Z,4.97
2022-10-20T03:21:17.907Z,4.96
2022-10-20T03:22:18.330Z,4.96
2022-10-20T03:23:20.124Z,4.96
2022-10-20T03:24:18.959Z,4.94
2022-10-20T03:25:19.370Z,4.97
2022-10-20T03:26:19.683Z,4.96
2022-10-20T03:27:20.057Z,4.94
2022-10-20T03:28:20.440Z,4.92
2022-10-20T03:29:20.799Z,4.90
2022-10-20T03:30:21.137Z,4.89
2022-10-20T03:31:21.486Z,4.87
2022-10-20T03:32:21.885Z,4.89
2022-10-20T03:33:22.220Z,4.89
2022-10-20T03:34:22.545Z,4.87
2022-10-20T03:35:22.915Z,4.86
2022-10-20T03:36:23.285Z,4.82
2022-10-20T03:37:23.676Z,4.86
2022-10-20T03:38:23.991Z,4.82
2022-10-20T03:39:24.353Z,4.78
2022-10-20T03:40:24.721Z,4.74
2022-10-20T03:41:25.087Z,4.77
2022-10-20T03:42:25.519Z,4.78
2022-10-20T03:43:25.794Z,4.80
2022-10-20T03:44:26.168Z,4.80
2022-10-20T03:45:26.533Z,4.84
2022-10-20T03:46:26.900Z,4.86
2022-10-20T03:47:27.288Z,4.86
2022-10-20T03:48:27.685Z,4.86
2022-10-20T03:49:27.976Z,4.82
2022-10-20T03:50:28.344Z,4.84
2022-10-20T03:51:28.720Z,4.84
2022-10-20T03:52:29.106Z,4.84
2022-10-20T03:53:29.447Z,4.84
2022-10-20T03:54:29.777Z,4.84
2022-10-20T03:55:30.137Z,4.80
2022-10-20T03:56:30.499Z,4.80
2022-10-20T03:57:30.856Z,4.78
2022-10-20T03:58:31.196Z,4.80
2022-10-20T03:59:31.540Z,4.80
2022-10-20T04:00:31.872Z,4.80
2022-10-20T04:01:32.312Z,4.80
2022-10-20T04:02:32.597Z,4.78
2022-10-20T04:03:32.932Z,4.82
2022-10-20T04:04:33.287Z,4.80
2022-10-20T04:05:33.653Z,4.82
2022-10-20T04:06:34.037Z,4.82
2022-10-20T04:07:34.407Z,4.84
2022-10-20T04:08:34.733Z,4.84
2022-10-20T04:09:35.130Z,4.86
2022-10-20T04:10:35.431Z,4.82
2022-10-20T04:11:35.791Z,4.84
2022-10-20T04:12:36.362Z,4.82
2022-10-20T04:13:36.496Z,4.84
2022-10-20T04:14:36.854Z,4.82
2022-10-20T04:15:37.216Z,4.82
2022-10-20T04:16:37.593Z,4.80
2022-10-20T04:17:41.005Z,4.78
2022-10-20T04:18:38.312Z,4.78
2022-10-20T04:19:38.649Z,4.77
2022-10-20T04:20:41.983Z,4.74
2022-10-20T04:21:39.378Z,4.71
2022-10-20T04:22:39.796Z,4.71
2022-10-20T04:23:40.077Z,4.75
2022-10-20T04:24:40.452Z,4.74
2022-10-20T04:25:40.823Z,4.73
2022-10-20T04:26:41.249Z,4.71
2022-10-20T04:27:41.567Z,4.71
2022-10-20T04:28:41.927Z,4.71
2022-10-20T04:29:42.295Z,4.71
2022-10-20T04:30:42.663Z,4.70
2022-10-20T04:31:46.705Z,4.68
2022-10-20T04:32:43.414Z,4.70
2022-10-20T04:33:43.749Z,4.70
2022-10-20T04:34:44.105Z,4.67
2022-10-20T04:35:44.531Z,4.67
2022-10-20T04:36:44.815Z,4.66
2022-10-20T04:37:45.198Z,4.62
2022-10-20T04:38:45.523Z,4.63
2022-10-20T04:39:45.886Z,4.63
2022-10-20T04:40:46.252Z,4.62
2022-10-20T04:41:46.623Z,4.62
2022-10-20T04:42:47.048Z,4.59
2022-10-20T04:43:47.330Z,4.62
2022-10-20T04:44:47.742Z,4.59
2022-10-20T04:45:48.057Z,4.62
2022-10-20T04:46:48.391Z,4.62
2022-10-20T04:47:48.763Z,4.62
2022-10-20T04:48:49.128Z,4.66
2022-10-20T04:49:49.455Z,4.67
2022-10-20T04:50:49.832Z,4.66
2022-10-20T04:51:50.152Z,4.67
2022-10-20T04:52:50.552Z,4.66
2022-10-20T04:53:50.885Z,4.62
2022-10-20T04:54:51.248Z,4.63
2022-10-20T04:55:51.611Z,4.62
2022-10-20T04:56:51.943Z,4.60
2022-10-20T04:57:52.339Z,4.58
2022-10-20T04:58:52.648Z,4.60
2022-10-20T04:59:53.015Z,4.58
2022-10-20T05:00:53.385Z,4.56
2022-10-20T05:01:53.842Z,4.55
2022-10-20T05:02:54.114Z,4.53
2022-10-20T05:03:54.449Z,4.55
2022-10-20T05:04:54.827Z,4.53
2022-10-20T05:05:55.179Z,4.53
2022-10-20T05:06:55.513Z,4.53
2022-10-20T05:07:55.893Z,4.55
2022-10-20T05:08:56.287Z,4.52
2022-10-20T05:09:56.587Z,4.53
2022-10-20T05:10:56.954Z,4.53
2022-10-20T05:11:57.345Z,4.53
2022-10-20T05:12:57.681Z,4.53
2022-10-20T05:13:58.016Z,4.56
2022-10-20T05:14:58.354Z,4.55
2022-10-20T05:15:58.702Z,4.53
2022-10-20T05:16:59.062Z,4.53
2022-10-20T05:17:59.474Z,4.52
2022-10-20T05:18:59.786Z,4.50
2022-10-20T05:20:00.125Z,4.52
2022-10-20T05:21:09.472Z,4.53
2022-10-20T05:22:00.628Z,4.53
2022-10-20T05:23:00.922Z,4.52
2022-10-20T05:24:01.257Z,4.53
2022-10-20T05:25:24.377Z,4.55
2022-10-20T05:26:01.886Z,4.56
2022-10-20T05:27:02.162Z,4.56
2022-10-20T05:28:02.450Z,4.58
2022-10-20T05:29:02.548Z,4.55
2022-10-20T05:30:02.711Z,4.55
2022-10-20T05:31:03.037Z,4.53
2022-10-20T05:32:03.186Z,4.52
2022-10-20T05:33:03.472Z,4.50
2022-10-20T05:34:03.735Z,4.50
2022-10-20T05:35:04.038Z,4.52
2022-10-20T05:36:04.319Z,4.53
2022-10-20T05:37:04.628Z,4.56
2022-10-20T05:38:04.802Z,4.59
2022-10-20T05:39:04.964Z,4.66
2022-10-20T05:40:05.245Z,4.66
2022-10-20T05:41:05.530Z,4.70
2022-10-20T05:42:05.810Z,4.70
2022-10-20T05:43:06.226Z,4.71
2022-10-20T05:44:06.400Z,4.74
2022-10-20T05:45:06.726Z,4.82
2022-10-20T05:46:06.980Z,4.84
2022-10-20T05:47:07.265Z,4.87
2022-10-20T05:48:07.600Z,4.94
2022-10-20T05:49:07.858Z,4.99
2022-10-20T05:50:08.154Z,5.00
2022-10-20T05:51:10.682Z,5.05
2022-10-20T05:52:08.490Z,5.10
2022-10-20T05:53:08.686Z,5.08
2022-10-20T05:54:08.936Z,5.07
2022-10-20T05:55:09.233Z,5.12
2022-10-20T05:56:09.395Z,5.17
2022-10-20T05:57:09.594Z,5.21
2022-10-20T05:58:09.886Z,5.23
2022-10-20T05:59:10.162Z,5.21
2022-10-20T06:00:10.436Z,5.21
2022-10-20T06:01:10.622Z,5.20
2022-10-20T06:02:10.908Z,5.20
2022-10-20T06:03:12.325Z,5.21
2022-10-20T06:04:11.268Z,5.21
2022-10-20T06:05:11.456Z,5.28
2022-10-20T06:06:11.635Z,5.29
2022-10-20T06:07:11.813Z,5.29
2022-10-20T06:08:11.999Z,5.32
2022-10-20T06:09:12.158Z,5.33
2022-10-20T06:10:12.451Z,5.33
2022-10-20T06:11:12.666Z,5.33
2022-10-20T06:12:12.820Z,5.39
2022-10-20T06:13:13.121Z,5.48
2022-10-20T06:14:13.382Z,5.48
2022-10-20T14:01:58.393Z,15.36
2022-10-20T14:02:59.571Z,15.22
2022-10-20T14:03:59.788Z,15.04
2022-10-20T14:04:59.931Z,15.03
2022-10-20T14:06:00.136Z,15.15
2022-10-20T14:07:00.324Z,15.22
2022-10-20T14:08:03.268Z,15.24
2022-10-20T14:09:00.732Z,15.10
2022-10-20T14:10:00.881Z,15.10
2022-10-20T14:11:01.076Z,15.10
2022-10-20T14:12:01.265Z,14.96
2022-10-20T14:13:01.455Z,14.88
2022-10-20T14:14:01.661Z,14.82
2022-10-20T14:15:07.820Z,14.54
2022-10-20T14:16:02.045Z,14.45
2022-10-20T14:17:02.214Z,14.41
2022-10-20T14:18:02.392Z,14.43
2022-10-20T14:19:02.624Z,14.37
2022-10-20T14:20:02.777Z,14.29
2022-10-20T14:21:03.103Z,14.25
2022-10-20T14:22:03.153Z,14.14
2022-10-20T14:23:03.349Z,14.08
2022-10-20T14:24:03.560Z,14.05
2022-10-20T14:25:03.716Z,13.99
2022-10-20T14:26:03.920Z,13.92
2022-10-20T14:27:04.077Z,13.90
2022-10-20T14:28:06.749Z,13.89
2022-10-20T14:29:04.489Z,13.89
2022-10-20T14:30:04.828Z,13.86
2022-10-20T14:31:04.857Z,13.83
2022-10-20T14:32:05.054Z,13.81
2022-10-20T14:33:05.242Z,13.79
2022-10-20T14:34:05.432Z,13.77
2022-10-20T14:35:05.585Z,13.75
2022-10-20T14:36:05.800Z,13.74
2022-10-20T14:37:05.998Z,13.67
2022-10-20T14:38:06.193Z,13.62
2022-10-20T14:39:06.411Z,13.62
2022-10-20T14:40:06.567Z,13.62
2022-10-20T14:41:06.760Z,13.56
2022-10-20T14:42:06.966Z,13.53
2022-10-20T14:43:07.167Z,13.53
2022-10-20T14:44:12.198Z,13.52
2022-10-20T14:45:07.554Z,13.49
2022-10-20T14:46:07.740Z,13.44
2022-10-20T14:47:07.947Z,13.41
2022-10-20T14:48:09.636Z,13.42
2022-10-20T14:49:08.335Z,13.35
2022-10-20T14:50:08.521Z,13.30
2022-10-20T14:51:08.701Z,13.31
2022-10-20T14:52:12.377Z,13.28
2022-10-20T14:53:09.082Z,13.25
2022-10-20T14:54:09.281Z,13.25
2022-10-20T14:55:09.457Z,13.25
2022-10-20T14:56:09.654Z,13.19
2022-10-20T14:57:09.848Z,13.20
2022-10-20T14:58:10.028Z,13.18
2022-10-20T14:59:10.259Z,13.13
2022-10-20T15:00:10.411Z,13.13
2022-10-20T15:01:10.614Z,13.13
2022-10-20T15:02:10.870Z,13.11
2022-10-20T15:03:11.053Z,13.05
2022-10-20T15:04:11.184Z,13.04
2022-10-20T15:05:11.370Z,13.04
2022-10-20T15:06:13.802Z,13.03
2022-10-20T15:07:11.711Z,13.03
2022-10-20T15:08:11.896Z,13.01
2022-10-20T15:09:15.590Z,12.95
2022-10-20T15:10:12.267Z,12.95
2022-10-20T15:11:12.426Z,12.97
2022-10-20T15:12:12.635Z,12.97
2022-10-20T15:13:12.774Z,12.97
2022-10-20T15:14:12.968Z,12.98
2022-10-20T15:15:13.131Z,12.97
2022-10-20T15:16:13.333Z,12.97
2022-10-20T15:17:13.500Z,12.94
2022-10-20T15:18:13.704Z,12.95
2022-10-20T15:19:13.864Z,12.95
2022-10-20T15:20:14.016Z,12.93
2022-10-20T15:21:14.200Z,12.90
2022-10-20T15:23:14.549Z,12.90
2022-10-20T15:24:14.839Z,12.90
2022-10-20T15:25:15.007Z,12.87
2022-10-20T15:26:15.150Z,12.83
2022-10-20T15:27:15.316Z,12.80
2022-10-20T15:28:15.492Z,12.79
2022-10-20T15:29:15.714Z,12.79
2022-10-20T15:30:15.850Z,12.76
2022-10-20T15:31:16.015Z,12.76
2022-10-20T15:32:16.195Z,12.76
2022-10-20T15:33:16.373Z,12.73
2022-10-20T15:34:16.557Z,12.72
2022-10-20T15:35:16.707Z,12.72
2022-10-20T15:36:16.872Z,12.72
2022-10-20T15:37:17.081Z,12.68
2022-10-20T15:38:17.233Z,12.68
2022-10-20T15:39:17.535Z,12.65
2022-10-20T15:40:17.819Z,12.64
2022-10-20T15:41:18.122Z,12.62
2022-10-20T15:42:18.428Z,12.64
2022-10-20T15:43:18.602Z,12.62
2022-10-20T15:44:18.789Z,12.60
2022-10-20T15:45:18.941Z,12.61
2022-10-20T15:46:19.108Z,12.61
2022-10-20T15:47:19.297Z,12.60
2022-10-20T15:48:19.485Z,12.58
2022-10-20T15:49:19.686Z,12.57
2022-10-20T15:50:21.780Z,12.57
2022-10-20T15:51:20.155Z,12.55
2022-10-20T15:52:20.328Z,12.54
2022-10-20T15:53:20.474Z,12.50
2022-10-20T15:54:20.667Z,12.50
2022-10-20T15:55:20.815Z,12.53
2022-10-20T15:56:20.997Z,12.53
2022-10-20T15:57:21.139Z,12.53
2022-10-20T15:58:21.310Z,12.49
2022-10-20T15:59:21.662Z,12.49
2022-10-20T16:00:21.794Z,12.46
2022-10-20T16:01:22.169Z,12.45
2022-10-20T16:02:22.394Z,12.43
2022-10-20T16:03:22.681Z,12.42
2022-10-20T16:04:22.876Z,12.40
2022-10-20T16:05:23.141Z,12.40
2022-10-20T16:06:23.323Z,12.40
2022-10-20T16:07:23.503Z,12.40
2022-10-20T16:08:23.674Z,12.37
2022-10-20T16:09:23.910Z,12.36
2022-10-20T16:10:24.012Z,12.35
2022-10-20T16:11:24.197Z,12.35
2022-10-20T16:12:24.372Z,12.35
2022-10-20T16:13:24.551Z,12.35
2022-10-20T16:14:24.850Z,12.32
2022-10-20T16:15:28.861Z,12.31
2022-10-20T16:16:25.199Z,12.29
2022-10-20T16:17:25.364Z,12.28
2022-10-20T16:18:25.557Z,12.27
2022-10-20T16:19:25.753Z,12.25
2022-10-20T16:20:25.923Z,12.25
2022-10-20T16:21:26.090Z,12.25
2022-10-20T16:22:26.264Z,12.24
2022-10-20T16:23:26.453Z,12.24
2022-10-20T16:24:26.640Z,12.22
2022-10-20T16:25:26.799Z,12.24
2022-10-20T16:26:26.998Z,12.24
2022-10-20T16:27:27.133Z,12.22
2022-10-20T16:28:27.313Z,12.24
2022-10-20T16:29:27.595Z,12.24
2022-10-20T16:30:27.752Z,12.21
2022-10-20T16:31:28.068Z,12.22
2022-10-20T16:32:32.847Z,12.21
2022-10-20T16:33:28.637Z,12.22
2022-10-20T16:34:28.817Z,12.21
2022-10-20T16:35:29.183Z,12.20
2022-10-20T16:36:29.303Z,12.21
2022-10-20T16:37:29.458Z,12.18
2022-10-20T16:38:29.640Z,12.18
2022-10-20T16:39:29.841Z,12.15
2022-10-20T16:40:30.190Z,12.13
2022-10-20T16:41:30.565Z,12.15
2022-10-20T16:42:30.678Z,12.13
2022-10-20T16:43:30.986Z,12.12
2022-10-20T16:44:31.279Z,12.12
2022-10-20T16:45:31.679Z,12.07
2022-10-20T16:46:32.042Z,12.06
2022-10-20T16:47:32.418Z,12.04
2022-10-20T16:48:33.706Z,12.02
2022-10-20T16:49:33.186Z,12.02
2022-10-20T16:50:33.517Z,12.02
2022-10-20T16:51:33.871Z,12.02
2022-10-20T16:52:34.221Z,12.02
2022-10-20T16:53:34.568Z,12.00
2022-10-20T16:54:34.978Z,11.99
2022-10-20T16:55:35.297Z,11.99
2022-10-20T16:56:35.671Z,11.95
2022-10-20T16:57:36.186Z,11.97
2022-10-20T16:58:36.366Z,11.94
2022-10-20T16:59:36.745Z,11.94
2022-10-20T17:00:37.115Z,11.95
2022-10-20T17:01:37.438Z,11.95
2022-10-20T17:02:37.789Z,11.94
2022-10-20T17:03:38.186Z,11.95
2022-10-20T17:04:38.527Z,11.95
2022-10-20T17:05:38.858Z,11.97
2022-10-20T17:06:39.235Z,11.97
2022-10-20T17:07:40.043Z,11.97
2022-10-20T17:08:40.061Z,11.97
2022-10-20T17:09:40.296Z,11.97
2022-10-20T17:10:40.638Z,11.95
2022-10-20T17:11:40.986Z,11.95
2022-10-20T17:12:41.413Z,11.95
2022-10-20T17:13:41.689Z,11.91
2022-10-20T17:14:42.063Z,11.97
2022-10-20T17:15:42.408Z,11.97
2022-10-20T17:16:42.746Z,11.97
2022-10-20T17:17:43.099Z,12.00
2022-10-20T17:18:43.453Z,11.99
2022-10-20T17:19:43.848Z,12.00
2022-10-20T17:20:44.164Z,12.00
2022-10-20T17:21:44.501Z,12.02
2022-10-20T17:22:44.852Z,12.03
2022-10-20T17:23:45.210Z,12.06
2022-10-20T17:24:45.583Z,12.04
2022-10-20T17:25:45.935Z,12.04
2022-10-20T17:26:46.282Z,12.03
2022-10-20T17:27:46.653Z,12.04
2022-10-20T17:28:47.003Z,12.04
2022-10-20T17:29:47.369Z,12.03
2022-10-20T17:30:47.711Z,12.00
2022-10-20T17:31:48.064Z,12.00
2022-10-20T17:32:48.417Z,11.99
2022-10-20T17:33:48.792Z,12.00
2022-10-20T17:34:49.146Z,12.02
2022-10-20T17:35:49.521Z,11.99
2022-10-20T17:36:49.866Z,12.00
2022-10-20T17:37:50.222Z,11.99
2022-10-20T17:38:50.565Z,11.99
2022-10-20T17:39:50.932Z,12.00
2022-10-20T17:40:51.267Z,12.02
2022-10-20T17:41:51.660Z,12.00
2022-10-20T17:42:51.983Z,12.00
2022-10-20T17:43:52.603Z,11.99
2022-10-20T17:44:52.727Z,11.97
2022-10-20T17:45:53.084Z,11.91
2022-10-20T17:46:53.432Z,11.91
2022-10-20T17:47:53.788Z,11.90
2022-10-20T17:48:54.132Z,11.88
2022-10-20T17:49:54.564Z,11.88
2022-10-20T17:50:54.840Z,11.87
2022-10-20T17:51:55.228Z,11.84
2022-10-20T17:52:55.569Z,11.83
2022-10-20T17:53:55.948Z,11.78
2022-10-20T17:54:56.309Z,11.75
2022-10-20T17:55:56.659Z,11.72
2022-10-20T17:56:57.006Z,11.69
2022-10-20T17:57:57.357Z,11.65
2022-10-20T17:58:57.819Z,11.62
2022-10-20T18:00:00.378Z,11.60
2022-10-20T18:00:58.487Z,11.62
2022-10-20T18:01:58.882Z,11.59
2022-10-20T18:02:59.123Z,11.57
2022-10-20T18:03:59.540Z,11.54
2022-10-20T18:04:59.895Z,11.52
2022-10-20T18:06:00.248Z,11.51
2022-10-20T18:07:00.594Z,11.48
2022-10-20T18:08:00.957Z,11.45
2022-10-20T18:09:01.342Z,11.43
2022-10-20T18:10:01.711Z,11.41
2022-10-20T18:11:02.085Z,11.35
2022-10-20T18:12:02.434Z,11.30
2022-10-20T18:13:02.787Z,11.27
2022-10-20T18:14:03.161Z,11.26
2022-10-20T18:15:03.516Z,11.25
2022-10-20T18:16:03.897Z,11.23
2022-10-20T18:17:04.250Z,11.23
2022-10-20T18:18:04.614Z,11.22
2022-10-20T18:19:04.962Z,11.23
2022-10-20T18:20:05.327Z,11.18
2022-10-20T18:21:05.669Z,11.17
2022-10-20T18:22:06.020Z,11.15
2022-10-20T18:23:06.386Z,11.15
2022-10-20T18:24:06.740Z,11.15
2022-10-20T18:25:07.113Z,11.15
2022-10-20T18:26:07.488Z,11.15
2022-10-20T18:27:07.822Z,11.18
2022-10-20T18:28:08.293Z,11.17
2022-10-20T18:29:08.517Z,11.15
2022-10-20T18:30:08.889Z,11.17
2022-10-20T18:31:09.236Z,11.17
2022-10-20T18:32:09.573Z,11.18
2022-10-20T18:33:09.938Z,11.18
2022-10-20T18:34:10.291Z,11.19
2022-10-20T18:35:10.703Z,11.17
2022-10-20T18:36:11.020Z,11.15
2022-10-20T18:37:11.371Z,11.19
2022-10-20T18:38:11.733Z,11.18
2022-10-20T18:39:12.112Z,11.18
2022-10-20T18:40:12.480Z,11.17
2022-10-20T18:41:12.790Z,11.17
2022-10-20T18:42:13.144Z,11.15
2022-10-20T18:43:13.493Z,11.17
2022-10-20T18:44:13.922Z,11.18
2022-10-20T18:45:14.212Z,11.19
2022-10-20T18:46:14.539Z,11.15
2022-10-20T18:47:14.896Z,11.17
2022-10-20T18:48:15.257Z,11.17
2022-10-20T18:49:15.611Z,11.14
2022-10-20T18:50:15.994Z,11.14
2022-10-20T18:51:16.334Z,11.11
2022-10-20T18:52:16.678Z,11.14
2022-10-20T18:53:17.028Z,11.14
2022-10-20T18:54:17.390Z,11.14
2022-10-20T18:55:17.764Z,11.10
2022-10-20T18:56:18.113Z,11.11
2022-10-20T18:57:18.486Z,11.10
2022-10-20T18:58:18.804Z,11.08
2022-10-20T18:59:19.151Z,11.10
2022-10-20T19:00:19.569Z,11.10
2022-10-20T19:01:19.916Z,11.10
2022-10-20T19:02:20.210Z,11.08
2022-10-20T19:03:20.567Z,11.07
2022-10-20T19:04:20.922Z,11.02
2022-10-20T19:05:21.296Z,11.00
2022-10-20T19:06:21.667Z,10.96
2022-10-20T19:07:21.995Z,10.92
2022-10-20T19:08:22.347Z,10.89
2022-10-20T19:09:22.724Z,10.86
2022-10-20T19:10:23.096Z,10.82
2022-10-20T19:11:23.435Z,10.82
2022-10-20T19:12:23.795Z,10.79
2022-10-20T19:13:24.144Z,10.79
2022-10-20T19:14:24.492Z,10.76
2022-10-20T19:15:24.860Z,10.75
2022-10-20T19:16:25.213Z,10.74
2022-10-20T19:17:25.575Z,10.72
2022-10-20T19:18:25.916Z,10.71
2022-10-20T19:19:26.273Z,10.68
2022-10-20T19:20:26.636Z,10.64
2022-10-20T19:21:26.974Z,10.67
2022-10-20T19:22:29.351Z,10.64
2022-10-20T19:23:27.682Z,10.63
2022-10-20T19:24:28.037Z,10.60
2022-10-20T19:25:28.393Z,10.61
2022-10-20T19:26:28.749Z,10.61
2022-10-20T19:27:29.102Z,10.61
2022-10-20T19:28:29.462Z,10.60
2022-10-20T19:29:29.807Z,10.59
2022-10-20T19:30:30.187Z,10.60
2022-10-20T19:31:30.532Z,10.59
2022-10-20T19:32:30.899Z,10.60
2022-10-20T19:33:31.237Z,10.57
2022-10-20T19:34:31.602Z,10.61
2022-10-20T19:35:31.967Z,10.59
2022-10-20T19:36:32.358Z,10.59
2022-10-20T19:37:32.683Z,10.59
2022-10-20T19:38:33.054Z,10.60
2022-10-20T19:39:33.398Z,10.61
2022-10-20T19:40:33.815Z,10.63
2022-10-20T19:41:34.139Z,10.61
2022-10-20T19:42:34.703Z,10.60
2022-10-20T19:43:34.865Z,10.63
2022-10-20T19:44:35.223Z,10.61
2022-10-20T19:45:35.580Z,10.61
2022-10-20T19:46:35.927Z,10.61
2022-10-20T19:47:36.281Z,10.60
2022-10-20T19:48:36.656Z,10.63
2022-10-20T19:49:36.999Z,10.63
2022-10-20T19:50:37.581Z,10.64
2022-10-20T19:51:37.703Z,10.67
2022-10-20T19:52:38.391Z,10.64
2022-10-20T19:53:38.428Z,10.64
2022-10-20T19:54:38.770Z,10.63
2022-10-20T19:55:39.148Z,10.63
2022-10-20T19:56:39.497Z,10.60
2022-10-20T19:57:39.846Z,10.60
2022-10-20T19:58:42.653Z,10.60
2022-10-20T19:59:40.570Z,10.59
2022-10-20T20:00:41.005Z,10.60
2022-10-20T20:01:41.280Z,10.60
2022-10-20T20:02:41.656Z,10.61
2022-10-20T20:03:42.001Z,10.59
2022-10-20T20:04:42.366Z,10.61
2022-10-20T20:05:42.736Z,10.63
2022-10-20T20:06:43.086Z,10.60
2022-10-20T20:07:43.441Z,10.60
2022-10-20T20:08:43.828Z,10.61
2022-10-20T20:09:44.698Z,10.60
2022-10-20T20:10:44.553Z,10.60
2022-10-20T20:11:44.908Z,10.60
2022-10-20T20:12:45.263Z,10.60
2022-10-20T20:13:45.789Z,10.60
2022-10-20T20:14:45.973Z,10.60
2022-10-20T20:15:46.345Z,10.61
2022-10-20T20:16:47.266Z,10.61
2022-10-20T20:17:47.057Z,10.60
2022-10-20T20:18:47.408Z,10.60
2022-10-20T20:19:47.773Z,10.61
2022-10-20T20:20:48.132Z,10.61
2022-10-20T20:21:48.491Z,10.61
2022-10-20T20:22:48.853Z,10.61
2022-10-20T20:24:01.903Z,10.61
2022-10-20T20:24:49.568Z,10.61
2022-10-20T20:25:49.956Z,10.61
2022-10-20T20:26:50.296Z,10.63
2022-10-20T20:27:50.646Z,10.61
2022-10-20T20:28:51.046Z,10.61
2022-10-20T20:29:51.372Z,10.61
2022-10-20T20:30:51.741Z,10.64
2022-10-20T20:31:52.149Z,10.63
2022-10-20T20:32:54.328Z,10.61
2022-10-20T20:33:52.808Z,10.63
2022-10-20T20:34:53.275Z,10.63
2022-10-20T20:35:53.548Z,10.61
2022-10-20T20:36:53.911Z,10.63
2022-10-20T20:37:54.281Z,10.61
2022-10-20T20:38:56.677Z,10.63
2022-10-20T20:39:54.993Z,10.63
2022-10-20T20:40:55.388Z,10.61
2022-10-20T20:41:55.722Z,10.64
2022-10-20T20:42:56.120Z,10.63
2022-10-20T20:43:56.423Z,10.63
2022-10-20T20:44:56.788Z,10.63
2022-10-20T20:45:57.180Z,10.63
2022-10-20T20:46:57.587Z,10.64
2022-10-20T20:47:57.860Z,10.64
2022-10-20T20:48:58.194Z,10.64
2022-10-20T20:49:58.578Z,10.68
2022-10-20T20:50:58.919Z,10.64
2022-10-20T20:51:59.270Z,10.68
2022-10-20T20:52:59.653Z,10.68
2022-10-20T20:54:00.001Z,10.68
2022-10-20T20:55:00.347Z,10.67
2022-10-20T20:56:00.738Z,10.69
2022-10-20T20:57:01.078Z,10.68
2022-10-20T20:58:01.429Z,10.71
2022-10-20T20:59:01.777Z,10.69
2022-10-20T21:00:02.136Z,10.67
2022-10-20T21:01:02.597Z,10.68
2022-10-20T21:02:02.883Z,10.68
2022-10-20T21:03:03.233Z,10.68
2022-10-20T21:04:03.582Z,10.68
2022-10-20T21:05:03.938Z,10.68
2022-10-20T21:06:04.319Z,10.68
2022-10-20T21:07:04.667Z,10.67
2022-10-20T21:08:05.031Z,10.67
2022-10-20T21:09:05.435Z,10.67
2022-10-20T21:10:05.765Z,10.64
2022-10-20T21:11:06.129Z,10.63
2022-10-20T21:12:07.526Z,10.64
2022-10-20T21:13:06.838Z,10.61
2022-10-20T21:14:07.219Z,10.64
